Time;durP1;ratioP1;P1;durP2;ratioP2;P2;SDS_P1;SDS_P2;PMS_P1;PMS_P2;Temp;Humidity;BMP_temperature;BMP_pressure;BME280_temperature;BME280_humidity;BME280_pressure;Samples;Min_cycle;Max_cycle;Signal;HPM_P1;HPM_P2
2022/06/22 00:01:14;;;;;;;10.63;5.30;;;;;;;;;;5011140;28;20478;-70
2022/06/22 00:03:53;;;;;;;9.07;4.70;;;;;;;;;;5011494;28;20050;-70
2022/06/22 00:07:04;;;;;;;11.57;5.53;;;;;;;;;;5050255;28;20058;-70
2022/06/22 00:09:38;;;;;;;8.85;4.85;;;;;;;;;;5051032;28;20484;-72
2022/06/22 00:12:23;;;;;;;11.82;5.30;;;;;;;;;;5050844;28;20465;-70
2022/06/22 00:14:57;;;;;;;9.93;5.28;;;;;;;;;;4994277;28;20046;-70
2022/06/22 00:17:37;;;;;;;19.52;8.80;;;;;;;;;;5010481;28;20061;-72
2022/06/22 00:20:20;;;;;;;79.95;36.58;;;;;;;;;;5009499;28;20534;-70
2022/06/22 00:22:55;;;;;;;18.60;10.82;;;;;;;;;;5010667;28;20058;-70
2022/06/22 00:25:32;;;;;;;14.70;8.18;;;;;;;;;;5010479;28;20061;-70
2022/06/22 00:28:31;;;;;;;13.20;7.68;;;;;;;;;;5017913;28;20064;-69
2022/06/22 00:31:14;;;;;;;12.85;6.70;;;;;;;;;;5030483;28;20521;-71
2022/06/22 00:34:10;;;;;;;11.27;6.05;;;;;;;;;;5030313;28;20054;-70
2022/06/22 00:36:42;;;;;;;14.65;7.80;;;;;;;;;;4994693;28;20116;-72
2022/06/22 00:39:32;;;;;;;20.17;11.43;;;;;;;;;;5006399;28;20057;-68
2022/06/22 00:42:21;;;;;;;17.30;9.07;;;;;;;;;;5033380;28;20057;-70
2022/06/22 00:45:27;;;;;;;12.73;6.35;;;;;;;;;;5050300;28;20049;-72
2022/06/22 00:48:07;;;;;;;15.02;7.63;;;;;;;;;;4962130;28;20061;-72
2022/06/22 00:50:41;;;;;;;14.45;5.75;;;;;;;;;;4990416;28;20058;-71
2022/06/22 00:53:16;;;;;;;10.95;5.43;;;;;;;;;;4974946;28;20494;-71
2022/06/22 00:56:18;;;;;;;9.95;4.40;;;;;;;;;;5021088;28;20056;-69
2022/06/22 00:59:18;;;;;;;10.57;4.13;;;;;;;;;;5029794;28;20057;-71
2022/06/22 01:02:19;;;;;;;8.40;3.42;;;;;;;;;;4990586;28;20047;-71
2022/06/22 01:05:06;;;;;;;7.00;2.28;;;;;;;;;;4990328;28;20100;-70
2022/06/22 01:08:00;;;;;;;12.75;5.80;;;;;;;;;;4912993;28;20062;-74
2022/06/22 01:10:48;;;;;;;7.10;3.13;;;;;;;;;;4942345;28;20062;-71
2022/06/22 01:13:25;;;;;;;4.90;2.58;;;;;;;;;;4990285;28;20101;-71
2022/06/22 01:16:03;;;;;;;7.80;3.55;;;;;;;;;;4957700;28;20054;-72
2022/06/22 01:18:48;;;;;;;6.03;2.70;;;;;;;;;;4990024;28;20050;-70
2022/06/22 01:21:24;;;;;;;5.63;2.35;;;;;;;;;;4974434;28;20054;-71
2022/06/22 01:24:06;;;;;;;8.40;3.25;;;;;;;;;;4918664;29;20062;-72
2022/06/22 01:26:52;;;;;;;5.75;2.63;;;;;;;;;;4951567;29;20063;-71
2022/06/22 01:29:26;;;;;;;4.70;2.47;;;;;;;;;;4969581;28;20534;-72
2022/06/22 01:32:13;;;;;;;6.57;2.42;;;;;;;;;;4970434;28;20419;-72
2022/06/22 01:34:47;;;;;;;7.57;3.33;;;;;;;;;;4954360;28;20066;-72
2022/06/22 01:37:23;;;;;;;4.72;2.53;;;;;;;;;;4938574;28;20396;-71
2022/06/22 01:40:17;;;;;;;3.55;1.83;;;;;;;;;;4990108;28;20528;-69
2022/06/22 01:43:13;;;;;;;4.00;1.88;;;;;;;;;;4980232;28;20193;-71
2022/06/22 01:45:48;;;;;;;3.40;1.20;;;;;;;;;;5029463;28;20497;-67
2022/06/22 01:48:33;;;;;;;5.88;1.52;;;;;;;;;;4989922;28;20073;-68
2022/06/22 01:51:15;;;;;;;4.13;1.77;;;;;;;;;;4941910;28;20065;-68
2022/06/22 01:53:55;;;;;;;6.57;2.17;;;;;;;;;;5001445;28;20465;-69
2022/06/22 01:57:03;;;;;;;5.03;1.92;;;;;;;;;;5032869;28;20063;-68
2022/06/22 02:00:14;;;;;;;2.65;1.30;;;;;;;;;;4998035;28;20058;-71
2022/06/22 02:03:12;;;;;;;3.65;1.15;;;;;;;;;;4951055;29;20051;-71
2022/06/22 02:09:08;;;;;;;5.53;2.10;;;;;;;;;;4878166;29;20058;-70
2022/06/22 02:11:46;;;;;;;2.65;1.30;;;;;;;;;;4863234;29;20056;-72
2022/06/22 02:14:25;;;;;;;4.38;2.13;;;;;;;;;;4847971;29;20405;-69
2022/06/22 02:17:02;;;;;;;3.80;1.90;;;;;;;;;;4894081;29;20540;-71
2022/06/22 02:19:32;;;;;;;4.80;2.20;;;;;;;;;;4894005;29;20417;-71
2022/06/22 02:22:03;;;;;;;7.18;2.88;;;;;;;;;;4894119;29;20065;-69
2022/06/22 02:24:33;;;;;;;6.25;2.47;;;;;;;;;;4862982;29;20052;-71
2022/06/22 02:27:08;;;;;;;5.03;2.47;;;;;;;;;;4912070;29;20067;-70
2022/06/22 02:29:42;;;;;;;5.15;2.50;;;;;;;;;;4912652;29;20056;-70
2022/06/22 02:32:21;;;;;;;7.15;2.58;;;;;;;;;;4912813;29;20048;-70
2022/06/22 02:34:55;;;;;;;5.50;2.22;;;;;;;;;;4977037;28;20054;-70
2022/06/22 02:37:35;;;;;;;4.90;2.20;;;;;;;;;;4989912;28;20058;-72
2022/06/22 02:40:10;;;;;;;3.80;2.10;;;;;;;;;;4989237;28;20513;-71
2022/06/22 02:45:30;;;;;;;2.80;1.50;;;;;;;;;;5017684;28;20461;-68
2022/06/22 02:48:02;;;;;;;10.57;1.80;;;;;;;;;;5032621;28;20081;-70
2022/06/22 02:50:35;;;;;;;3.40;1.55;;;;;;;;;;5032520;28;20501;-72
2022/06/22 02:53:34;;;;;;;1.85;0.73;;;;;;;;;;5032442;28;20060;-72
2022/06/22 02:56:13;;;;;;;2.40;0.82;;;;;;;;;;4993135;28;20058;-70
2022/06/22 02:58:48;;;;;;;2.97;0.77;;;;;;;;;;4993126;28;20054;-68
2022/06/22 03:01:23;;;;;;;2.20;0.70;;;;;;;;;;4977207;28;20126;-69
2022/06/22 03:03:57;;;;;;;1.60;0.88;;;;;;;;;;4960471;28;20062;-70
2022/06/22 03:06:35;;;;;;;2.78;0.80;;;;;;;;;;4976529;28;20058;-69
2022/06/22 03:09:08;;;;;;;2.42;1.25;;;;;;;;;;4992740;28;20450;-69
2022/06/22 03:11:51;;;;;;;3.65;1.30;;;;;;;;;;4992911;28;20054;-68
2022/06/22 03:14:32;;;;;;;4.13;0.88;;;;;;;;;;4993008;28;20073;-69
2022/06/22 03:17:07;;;;;;;3.97;1.00;;;;;;;;;;5001601;28;20065;-69
2022/06/22 03:20:18;;;;;;;1.50;0.73;;;;;;;;;;4992232;28;20054;-69
2022/06/22 03:22:54;;;;;;;1.55;0.50;;;;;;;;;;4915598;29;20056;-67
2022/06/22 03:25:44;;;;;;;1.33;0.70;;;;;;;;;;4915580;29;20068;-67
2022/06/22 03:28:32;;;;;;;0.68;0.43;;;;;;;;;;4896609;29;20552;-65
2022/06/22 03:31:16;;;;;;;5.93;1.02;;;;;;;;;;4896822;29;20572;-61
2022/06/22 03:33:54;;;;;;;4.88;1.15;;;;;;;;;;4910778;29;20048;-64
2022/06/22 03:36:47;;;;;;;0.55;0.30;;;;;;;;;;4896100;29;20052;-61
2022/06/22 03:39:21;;;;;;;0.50;0.40;;;;;;;;;;4896638;29;20061;-63
2022/06/22 03:41:59;;;;;;;2.20;0.70;;;;;;;;;;4880755;29;20056;-62
2022/06/22 03:45:14;;;;;;;2.38;0.70;;;;;;;;;;4896437;29;20064;-61
2022/06/22 03:47:50;;;;;;;2.00;0.63;;;;;;;;;;4840576;29;20447;-61
2022/06/22 03:50:48;;;;;;;6.43;1.80;;;;;;;;;;4840418;29;20058;-63
2022/06/22 03:53:24;;;;;;;6.28;2.00;;;;;;;;;;4821797;29;20545;-63
2022/06/22 03:56:01;;;;;;;3.55;1.23;;;;;;;;;;4821990;29;20435;-62
2022/06/22 03:58:31;;;;;;;3.85;1.42;;;;;;;;;;4840630;29;20058;-62
2022/06/22 04:01:04;;;;;;;5.50;1.55;;;;;;;;;;4886232;29;20064;-61
2022/06/22 04:03:36;;;;;;;4.68;0.90;;;;;;;;;;4880879;29;20496;-62
2022/06/22 04:06:09;;;;;;;3.60;0.85;;;;;;;;;;4876099;29;20055;-63
2022/06/22 04:08:41;;;;;;;4.15;0.88;;;;;;;;;;4915069;29;20056;-63
2022/06/22 04:11:34;;;;;;;4.68;1.00;;;;;;;;;;4922298;29;20452;-64
2022/06/22 04:14:20;;;;;;;4.82;0.63;;;;;;;;;;4914482;29;20064;-63
2022/06/22 04:16:53;;;;;;;;;;;;;;;;;;4914946;29;20048;-64
2022/06/22 04:19:29;;;;;;;2.28;0.70;;;;;;;;;;4914670;29;19923;-64
2022/06/22 04:22:09;;;;;;;3.20;0.63;;;;;;;;;;4914386;29;20051;-63
2022/06/22 04:24:58;;;;;;;5.60;0.70;;;;;;;;;;4924019;29;20062;-65
2022/06/22 04:27:38;;;;;;;1.92;0.77;;;;;;;;;;4933319;29;20058;-63
2022/06/22 04:30:31;;;;;;;2.58;0.77;;;;;;;;;;4935497;28;20089;-63
2022/06/22 04:33:36;;;;;;;4.55;1.00;;;;;;;;;;4939504;28;20050;-63
2022/06/22 04:36:12;;;;;;;3.58;0.60;;;;;;;;;;4955819;28;20546;-63
2022/06/22 04:39:26;;;;;;;4.47;0.80;;;;;;;;;;4920262;29;20043;-64
2022/06/22 04:41:56;;;;;;;3.08;0.45;;;;;;;;;;4932776;29;20060;-60
2022/06/22 04:44:30;;;;;;;1.85;0.60;;;;;;;;;;4917507;29;20424;-62
2022/06/22 04:47:12;;;;;;;6.00;0.70;;;;;;;;;;4932881;29;20066;-62
2022/06/22 04:49:55;;;;;;;1.90;0.80;;;;;;;;;;4933194;29;20056;-62
2022/06/22 04:52:37;;;;;;;1.80;0.40;;;;;;;;;;4933101;29;20072;-61
2022/06/22 04:55:10;;;;;;;1.52;0.85;;;;;;;;;;4933215;29;20060;-63
2022/06/22 04:57:42;;;;;;;3.45;0.95;;;;;;;;;;4933139;29;20070;-63
2022/06/22 05:00:15;;;;;;;2.42;0.82;;;;;;;;;;4961420;28;20054;-63
2022/06/22 05:02:49;;;;;;;3.22;0.60;;;;;;;;;;4970961;28;20062;-63
2022/06/22 05:05:32;;;;;;;1.70;0.60;;;;;;;;;;4922859;28;20558;-63
2022/06/22 05:08:06;;;;;;;2.55;0.50;;;;;;;;;;4994194;28;20050;-63
2022/06/22 05:10:45;;;;;;;1.60;0.60;;;;;;;;;;4990407;28;20621;-63
2022/06/22 05:13:24;;;;;;;2.53;0.80;;;;;;;;;;4990575;28;20161;-63
2022/06/22 05:15:59;;;;;;;2.58;0.80;;;;;;;;;;4990687;28;20065;-63
2022/06/22 05:18:34;;;;;;;1.83;0.60;;;;;;;;;;4972174;28;20059;-63
2022/06/22 05:21:33;;;;;;;1.38;0.52;;;;;;;;;;4957528;28;20050;-63
2022/06/22 05:24:27;;;;;;;2.72;0.57;;;;;;;;;;4990483;28;20055;-63
2022/06/22 05:26:59;;;;;;;4.90;0.60;;;;;;;;;;4990317;28;20059;-63
2022/06/22 05:29:49;;;;;;;1.23;0.90;;;;;;;;;;4974351;28;20050;-63
2022/06/22 05:32:52;;;;;;;2.00;0.70;;;;;;;;;;4990288;28;20061;-64
2022/06/22 05:35:29;;;;;;;1.83;0.70;;;;;;;;;;4990151;28;20061;-64
2022/06/22 05:38:02;;;;;;;3.72;0.75;;;;;;;;;;4957573;28;20058;-64
2022/06/22 05:40:35;;;;;;;4.00;0.70;;;;;;;;;;5004059;28;20489;-64
2022/06/22 05:43:08;;;;;;;1.75;0.60;;;;;;;;;;4989741;28;20055;-64
2022/06/22 05:45:45;;;;;;;1.75;0.47;;;;;;;;;;4990062;28;20058;-64
2022/06/22 05:48:20;;;;;;;0.82;0.45;;;;;;;;;;4954164;28;20088;-64
2022/06/22 05:51:12;;;;;;;1.30;0.40;;;;;;;;;;4953894;28;20050;-64
2022/06/22 05:54:03;;;;;;;1.52;0.65;;;;;;;;;;4970521;28;20438;-64
2022/06/22 05:56:38;;;;;;;1.45;0.50;;;;;;;;;;4957010;28;20066;-65
2022/06/22 05:59:30;;;;;;;2.13;0.57;;;;;;;;;;4990110;28;20053;-65
2022/06/22 06:02:22;;;;;;;2.85;0.65;;;;;;;;;;5009326;28;20477;-64
2022/06/22 06:04:53;;;;;;;1.63;0.80;;;;;;;;;;5009255;28;20050;-64
2022/06/22 06:07:46;;;;;;;3.40;0.70;;;;;;;;;;4976675;28;20058;-65
2022/06/22 06:10:20;;;;;;;1.83;0.70;;;;;;;;;;5009547;28;20085;-65
2022/06/22 06:13:13;;;;;;;1.67;0.50;;;;;;;;;;4976931;28;20510;-64
2022/06/22 06:15:45;;;;;;;1.98;0.60;;;;;;;;;;5009627;28;20045;-65
2022/06/22 06:18:23;;;;;;;2.90;0.73;;;;;;;;;;5011375;28;20395;-65
2022/06/22 06:21:11;;;;;;;1.83;0.80;;;;;;;;;;5047935;28;20428;-65
2022/06/22 06:23:48;;;;;;;1.95;0.52;;;;;;;;;;5013017;28;20122;-65
2022/06/22 06:29:30;;;;;;;3.53;1.20;;;;;;;;;;5009838;28;20062;-66
2022/06/22 06:32:12;;;;;;;2.75;0.80;;;;;;;;;;4993041;28;20054;-65
2022/06/22 06:34:48;;;;;;;1.27;0.60;;;;;;;;;;4993601;28;20093;-63
2022/06/22 06:37:24;;;;;;;2.05;0.80;;;;;;;;;;4993392;28;20465;-62
2022/06/22 06:39:57;;;;;;;2.42;0.77;;;;;;;;;;5009188;28;20054;-59
2022/06/22 06:42:44;;;;;;;2.00;0.70;;;;;;;;;;4993001;28;20058;-60
2022/06/22 06:45:22;;;;;;;1.98;0.68;;;;;;;;;;4993438;28;20738;-62
2022/06/22 06:47:59;;;;;;;3.13;1.48;;;;;;;;;;4976829;28;20054;-63
2022/06/22 06:50:38;;;;;;;1.60;0.73;;;;;;;;;;4992823;28;20062;-63
2022/06/22 06:53:39;;;;;;;2.00;0.70;;;;;;;;;;4977359;28;20062;-63
2022/06/22 06:56:14;;;;;;;2.35;0.93;;;;;;;;;;4993178;28;20416;-62
2022/06/22 06:58:54;;;;;;;2.67;0.77;;;;;;;;;;4992987;28;20053;-62
2022/06/22 07:01:35;;;;;;;1.65;0.85;;;;;;;;;;5004137;28;20064;-60
2022/06/22 07:04:31;;;;;;;3.20;0.75;;;;;;;;;;5012710;28;20409;-62
2022/06/22 07:07:40;;;;;;;1.92;0.60;;;;;;;;;;5011907;28;20046;-63
2022/06/22 07:10:25;;;;;;;1.65;0.70;;;;;;;;;;5012480;28;20057;-63
2022/06/22 07:13:00;;;;;;;2.90;1.65;;;;;;;;;;5012304;28;20094;-63
2022/06/22 07:15:40;;;;;;;3.35;0.85;;;;;;;;;;4963504;28;20058;-63
2022/06/22 07:18:25;;;;;;;2.13;1.00;;;;;;;;;;5012191;28;20410;-63
2022/06/22 07:21:18;;;;;;;;;;;;;;;;;;5012730;28;20058;-63
2022/06/22 07:23:55;;;;;;;3.33;1.35;;;;;;;;;;5012305;28;20624;-63
2022/06/22 07:26:37;;;;;;;2.63;0.93;;;;;;;;;;4963750;28;20584;-63
2022/06/22 07:29:41;;;;;;;1.90;0.80;;;;;;;;;;5011629;28;20061;-63
2022/06/22 07:32:33;;;;;;;2.63;0.90;;;;;;;;;;4963529;28;20611;-63
2022/06/22 07:35:29;;;;;;;2.33;0.90;;;;;;;;;;5012409;28;20101;-64
2022/06/22 07:38:36;;;;;;;1.25;0.60;;;;;;;;;;4924435;28;20062;-64
2022/06/22 07:41:20;;;;;;;2.78;1.00;;;;;;;;;;4972811;28;20055;-64
2022/06/22 07:44:05;;;;;;;2.70;0.98;;;;;;;;;;4978508;28;20046;-63
2022/06/22 07:46:38;;;;;;;2.30;0.95;;;;;;;;;;4991857;28;20058;-63
2022/06/22 07:49:23;;;;;;;1.90;0.93;;;;;;;;;;4991863;28;20054;-61
2022/06/22 07:51:58;;;;;;;2.78;1.00;;;;;;;;;;4992151;28;20054;-64
2022/06/22 07:54:38;;;;;;;1.25;0.60;;;;;;;;;;4959434;28;20070;-64
2022/06/22 07:57:23;;;;;;;2.42;1.30;;;;;;;;;;4991982;28;20063;-64
2022/06/22 08:00:05;;;;;;;2.92;1.10;;;;;;;;;;4989156;28;20514;-64
2022/06/22 08:02:42;;;;;;;2.97;1.10;;;;;;;;;;4953156;28;20098;-64
2022/06/22 08:05:20;;;;;;;2.67;1.70;;;;;;;;;;4972018;28;20054;-65
2022/06/22 08:08:02;;;;;;;;;;;;;;;;;;4956241;28;20062;-65
2022/06/22 08:10:35;;;;;;;3.22;1.13;;;;;;;;;;4933581;29;19922;-66
2022/06/22 08:13:05;;;;;;;3.38;1.35;;;;;;;;;;4933657;29;20070;-64
2022/06/22 08:15:41;;;;;;;2.78;1.27;;;;;;;;;;4962161;28;20057;-65
2022/06/22 08:18:13;;;;;;;2.65;1.23;;;;;;;;;;5030856;28;20049;-65
2022/06/22 08:20:46;;;;;;;2.55;1.23;;;;;;;;;;5030848;28;20054;-65
2022/06/22 08:23:27;;;;;;;2.47;1.35;;;;;;;;;;5014203;28;20139;-65
2022/06/22 08:26:10;;;;;;;4.55;1.48;;;;;;;;;;5030699;28;20053;-65
2022/06/22 08:28:40;;;;;;;4.82;1.58;;;;;;;;;;4999626;28;20409;-65
2022/06/22 08:31:12;;;;;;;4.32;1.50;;;;;;;;;;4998341;28;20054;-64
2022/06/22 08:33:55;;;;;;;2.78;1.40;;;;;;;;;;5030627;28;20591;-65
2022/06/22 08:36:49;;;;;;;5.82;1.60;;;;;;;;;;5040857;28;20057;-65
2022/06/22 08:39:41;;;;;;;3.72;1.40;;;;;;;;;;5050556;28;20052;-65
2022/06/22 08:42:35;;;;;;;3.10;1.30;;;;;;;;;;5050004;28;20065;-65
2022/06/22 08:45:15;;;;;;;3.38;1.40;;;;;;;;;;5050139;28;20053;-65
2022/06/22 08:47:56;;;;;;;4.45;2.08;;;;;;;;;;5057299;28;20048;-65
2022/06/22 08:50:30;;;;;;;5.55;1.63;;;;;;;;;;5072310;28;20392;-65
2022/06/22 08:53:09;;;;;;;2.90;1.40;;;;;;;;;;5072427;28;20419;-65
2022/06/22 08:56:17;;;;;;;6.63;2.00;;;;;;;;;;5072404;28;20045;-66
2022/06/22 08:59:07;;;;;;;6.63;2.17;;;;;;;;;;5014087;28;20104;-65
2022/06/22 09:01:46;;;;;;;4.55;2.10;;;;;;;;;;4981397;28;20064;-65
2022/06/22 09:04:44;;;;;;;6.45;3.00;;;;;;;;;;4996959;28;20058;-65
2022/06/22 09:08:02;;;;;;;7.00;3.45;;;;;;;;;;4980813;28;20053;-66
2022/06/22 09:10:47;;;;;;;7.60;4.15;;;;;;;;;;4990534;28;20442;-66
2022/06/22 09:13:38;;;;;;;10.85;3.72;;;;;;;;;;4990273;28;20059;-66
2022/06/22 09:16:27;;;;;;;9.65;3.88;;;;;;;;;;4970871;28;20419;-65
2022/06/22 09:19:15;;;;;;;10.38;4.57;;;;;;;;;;4971187;28;20058;-65
2022/06/22 09:22:06;;;;;;;8.05;3.58;;;;;;;;;;4970817;28;20050;-66
2022/06/22 09:24:52;;;;;;;9.60;4.18;;;;;;;;;;4970812;28;20055;-65
2022/06/22 09:27:28;;;;;;;9.48;4.78;;;;;;;;;;4970711;28;20051;-65
2022/06/22 09:30:28;;;;;;;9.77;4.53;;;;;;;;;;4931899;29;20048;-65
2022/06/22 09:33:34;;;;;;;9.57;4.80;;;;;;;;;;4900732;29;20428;-66
2022/06/22 09:36:45;;;;;;;7.68;3.33;;;;;;;;;;4967836;28;20054;-66
2022/06/22 09:39:46;;;;;;;6.65;3.10;;;;;;;;;;4970754;28;20051;-67
2022/06/22 09:42:22;;;;;;;5.40;2.78;;;;;;;;;;4970533;28;20073;-66
2022/06/22 09:45:11;;;;;;;8.35;3.30;;;;;;;;;;4970751;28;20054;-66
2022/06/22 09:48:18;;;;;;;7.97;3.13;;;;;;;;;;4967367;28;20058;-66
2022/06/22 09:50:57;;;;;;;7.93;3.90;;;;;;;;;;5009370;28;20053;-66
2022/06/22 09:53:59;;;;;;;9.48;4.80;;;;;;;;;;5009328;28;20062;-66
2022/06/22 09:56:56;;;;;;;9.75;4.78;;;;;;;;;;4970594;28;20055;-66
2022/06/22 09:59:29;;;;;;;8.57;4.32;;;;;;;;;;4990263;28;20058;-69
2022/06/22 10:02:35;;;;;;;8.02;3.88;;;;;;;;;;5009613;28;20147;-66
2022/06/22 10:05:30;;;;;;;11.88;4.60;;;;;;;;;;4993261;28;20050;-65
2022/06/22 10:08:08;;;;;;;9.68;4.35;;;;;;;;;;5022278;28;20057;-63
2022/06/22 10:10:44;;;;;;;8.82;4.35;;;;;;;;;;4996220;28;20053;-64
2022/06/22 10:13:45;;;;;;;10.88;4.53;;;;;;;;;;4996246;28;20053;-65
2022/06/22 10:16:31;;;;;;;15.48;6.47;;;;;;;;;;5029089;28;20049;-64
2022/06/22 10:19:08;;;;;;;10.90;5.53;;;;;;;;;;5013092;28;20041;-62
2022/06/22 10:22:16;;;;;;;12.35;7.20;;;;;;;;;;5029042;28;20053;-64
2022/06/22 10:25:06;;;;;;;14.25;6.47;;;;;;;;;;5008976;28;20049;-64
2022/06/22 10:27:51;;;;;;;10.60;5.53;;;;;;;;;;4970001;28;20077;-62
2022/06/22 10:30:30;;;;;;;;;;;;;;;;;;4938770;28;20047;-61
2022/06/22 10:33:15;;;;;;;10.48;5.93;;;;;;;;;;4976260;28;19929;-63
2022/06/22 10:36:14;;;;;;;8.82;5.13;;;;;;;;;;4973350;28;20046;-64
2022/06/22 10:39:17;;;;;;;13.88;6.82;;;;;;;;;;4989493;28;20446;-64
2022/06/22 10:45:15;;;;;;;7.80;4.50;;;;;;;;;;4957267;28;20395;-63
2022/06/22 10:48:23;;;;;;;7.78;4.53;;;;;;;;;;4969453;28;20095;-63
2022/06/22 10:51:36;;;;;;;10.40;4.70;;;;;;;;;;4970256;28;20507;-63
2022/06/22 10:54:44;;;;;;;9.00;5.38;;;;;;;;;;4929987;29;20470;-64
2022/06/22 10:57:39;;;;;;;9.52;5.53;;;;;;;;;;4931592;29;20051;-65
2022/06/22 11:00:20;;;;;;;9.00;4.68;;;;;;;;;;4931429;29;20060;-65
2022/06/22 11:03:00;;;;;;;10.30;4.68;;;;;;;;;;4969042;28;20055;-65
2022/06/22 11:05:54;;;;;;;8.50;4.93;;;;;;;;;;4972877;28;20065;-65
2022/06/22 11:08:39;;;;;;;11.27;5.18;;;;;;;;;;4903091;29;20048;-65
2022/06/22 11:11:32;;;;;;;13.50;6.63;;;;;;;;;;4918951;29;20051;-65
2022/06/22 11:14:15;;;;;;;13.98;6.60;;;;;;;;;;4950051;29;20055;-65
2022/06/22 11:16:54;;;;;;;12.55;5.85;;;;;;;;;;4953814;28;20063;-66
2022/06/22 11:19:55;;;;;;;12.43;5.70;;;;;;;;;;4953615;28;20455;-65
2022/06/22 11:22:25;;;;;;;11.13;5.50;;;;;;;;;;4953864;29;20066;-65
2022/06/22 11:25:15;;;;;;;11.57;5.55;;;;;;;;;;4953564;29;20075;-65
2022/06/22 11:31:08;;;;;;;11.68;5.15;;;;;;;;;;4941816;28;20057;-66
2022/06/22 11:34:02;;;;;;;11.07;5.97;;;;;;;;;;4992184;28;20065;-65
2022/06/22 11:36:53;;;;;;;12.70;5.70;;;;;;;;;;4992532;28;20050;-66
2022/06/22 11:39:50;;;;;;;;;;;;;;;;;;4992858;28;20058;-66
2022/06/22 11:42:39;;;;;;;9.93;5.18;;;;;;;;;;4992235;28;19929;-66
2022/06/22 11:48:32;;;;;;;9.25;4.68;;;;;;;;;;5011702;28;20042;-66
2022/06/22 11:51:29;;;;;;;10.45;5.63;;;;;;;;;;4982981;28;20485;-66
2022/06/22 11:54:14;;;;;;;21.23;9.40;;;;;;;;;;5031257;28;20048;-66
2022/06/22 11:56:56;;;;;;;14.23;6.70;;;;;;;;;;5047076;28;20184;-65
2022/06/22 11:59:54;;;;;;;10.35;5.32;;;;;;;;;;5071174;28;20060;-66
2022/06/22 12:02:35;;;;;;;;;;;;;;;;;;5071500;28;20041;-66
2022/06/22 12:05:28;;;;;;;9.23;5.47;;;;;;;;;;5038220;28;20274;-66
2022/06/22 12:08:22;;;;;;;8.63;3.97;;;;;;;;;;5018013;28;20720;-66
2022/06/22 12:11:10;;;;;;;8.05;3.95;;;;;;;;;;5051089;28;20045;-66
2022/06/22 12:17:24;;;;;;;9.38;4.30;;;;;;;;;;5050790;28;20060;-66
2022/06/22 12:20:29;;;;;;;7.40;3.92;;;;;;;;;;4991695;28;20058;-66
2022/06/22 12:23:22;;;;;;;7.32;4.38;;;;;;;;;;4991705;28;20061;-66
2022/06/22 12:26:24;;;;;;;9.35;4.65;;;;;;;;;;4943206;28;20414;-66
2022/06/22 12:29:30;;;;;;;10.35;4.57;;;;;;;;;;4933691;29;20056;-66
2022/06/22 12:32:13;;;;;;;8.13;4.63;;;;;;;;;;4933581;29;20070;-66
2022/06/22 12:35:16;;;;;;;8.60;4.60;;;;;;;;;;4933431;29;20063;-66
2022/06/22 12:37:56;;;;;;;7.55;4.30;;;;;;;;;;4971794;28;20047;-66
2022/06/22 12:40:48;;;;;;;9.70;4.50;;;;;;;;;;4955761;28;20057;-66
2022/06/22 12:43:39;;;;;;;8.15;4.38;;;;;;;;;;4924010;28;20057;-66
2022/06/22 12:46:21;;;;;;;11.88;4.53;;;;;;;;;;4940149;28;20067;-66
2022/06/22 12:49:03;;;;;;;10.55;5.03;;;;;;;;;;4971514;28;20042;-65
2022/06/22 12:51:45;;;;;;;9.30;5.38;;;;;;;;;;4971774;28;21112;-64
2022/06/22 12:54:22;;;;;;;8.15;3.78;;;;;;;;;;4971379;28;20070;-64
2022/06/22 12:57:14;;;;;;;10.77;5.60;;;;;;;;;;4982807;28;20097;-64
2022/06/22 12:59:53;;;;;;;8.52;4.25;;;;;;;;;;5010624;28;20054;-64
2022/06/22 13:02:30;;;;;;;8.35;4.90;;;;;;;;;;4994316;28;20058;-64
2022/06/22 13:05:13;;;;;;;7.80;3.90;;;;;;;;;;4998789;28;20576;-64
2022/06/22 13:08:04;;;;;;;12.10;4.25;;;;;;;;;;5071844;28;20068;-64
2022/06/22 13:10:40;;;;;;;7.35;4.18;;;;;;;;;;5072448;28;20040;-64
2022/06/22 13:13:21;;;;;;;7.53;4.10;;;;;;;;;;5070233;28;20053;-65
2022/06/22 13:16:10;;;;;;;7.53;4.00;;;;;;;;;;5071014;28;20488;-64
2022/06/22 13:18:58;;;;;;;9.18;4.60;;;;;;;;;;5036699;28;20064;-64
2022/06/22 13:21:42;;;;;;;10.73;5.32;;;;;;;;;;5069491;28;20071;-64
2022/06/22 13:24:20;;;;;;;8.60;3.85;;;;;;;;;;4997119;28;20049;-64
2022/06/22 13:27:01;;;;;;;6.40;3.60;;;;;;;;;;5029007;28;20046;-64
2022/06/22 13:29:43;;;;;;;10.15;5.25;;;;;;;;;;5029347;28;20068;-64
2022/06/22 13:32:17;;;;;;;18.80;8.10;;;;;;;;;;5029601;28;20048;-64
2022/06/22 13:34:51;;;;;;;19.65;11.13;;;;;;;;;;5005603;28;20050;-64
2022/06/22 13:37:58;;;;;;;11.43;5.82;;;;;;;;;;4974300;28;20058;-65
2022/06/22 13:41:13;;;;;;;10.77;6.10;;;;;;;;;;4954459;28;20058;-64
2022/06/22 13:44:00;;;;;;;10.10;5.32;;;;;;;;;;4932056;29;20067;-64
2022/06/22 13:47:02;;;;;;;9.82;6.30;;;;;;;;;;4916642;29;20420;-64
2022/06/22 13:50:26;;;;;;;12.45;7.85;;;;;;;;;;4856592;29;20530;-64
2022/06/22 13:53:27;;;;;;;13.77;6.15;;;;;;;;;;4856743;29;20096;-64
2022/06/22 13:56:29;;;;;;;11.65;4.80;;;;;;;;;;4783872;29;20070;-64
2022/06/22 13:59:21;;;;;;;9.38;4.18;;;;;;;;;;4783560;30;20063;-64
2022/06/22 14:02:34;;;;;;;7.68;4.18;;;;;;;;;;4794396;29;20518;-64
2022/06/22 14:05:23;;;;;;;8.30;4.03;;;;;;;;;;4800916;29;20059;-64
2022/06/22 14:08:27;;;;;;;6.57;3.85;;;;;;;;;;4802001;29;20074;-64
2022/06/22 14:11:29;;;;;;;4.40;2.30;;;;;;;;;;4801644;29;20062;-64
2022/06/22 14:14:12;;;;;;;3.70;2.15;;;;;;;;;;4748311;30;20056;-64
2022/06/22 14:17:27;;;;;;;6.35;2.35;;;;;;;;;;4749073;30;20105;-64
2022/06/22 14:20:29;;;;;;;5.18;2.72;;;;;;;;;;4779526;29;20062;-64
2022/06/22 14:23:05;;;;;;;6.22;2.28;;;;;;;;;;4820357;29;20059;-64
2022/06/22 14:26:07;;;;;;;3.85;2.00;;;;;;;;;;4831238;29;20054;-64
2022/06/22 14:29:04;;;;;;;5.13;1.90;;;;;;;;;;4819806;29;20058;-64
2022/06/22 14:32:20;;;;;;;3.63;1.80;;;;;;;;;;4821855;29;20062;-64
2022/06/22 14:35:07;;;;;;;3.13;1.65;;;;;;;;;;4881030;29;20063;-64
2022/06/22 14:38:01;;;;;;;5.57;1.92;;;;;;;;;;4950889;28;20062;-64
2022/06/22 14:40:38;;;;;;;2.95;1.60;;;;;;;;;;4897623;29;20169;-64
2022/06/22 14:43:26;;;;;;;4.88;1.85;;;;;;;;;;4866130;29;20126;-64
2022/06/22 14:46:19;;;;;;;5.15;1.90;;;;;;;;;;4897721;29;20417;-64
2022/06/22 14:49:02;;;;;;;5.45;2.30;;;;;;;;;;4910092;29;20425;-64
2022/06/22 14:51:59;;;;;;;4.13;2.13;;;;;;;;;;4897609;29;20056;-64
2022/06/22 14:55:01;;;;;;;4.88;2.10;;;;;;;;;;4878566;29;20057;-64
2022/06/22 14:57:59;;;;;;;3.70;1.80;;;;;;;;;;4879099;29;20498;-64
2022/06/22 15:01:00;;;;;;;4.40;1.85;;;;;;;;;;4878543;29;20520;-64
2022/06/22 15:03:52;;;;;;;3.55;1.55;;;;;;;;;;4865207;29;20058;-66
2022/06/22 15:06:49;;;;;;;4.57;1.80;;;;;;;;;;4874704;29;20105;-65
2022/06/22 15:09:35;;;;;;;3.92;1.70;;;;;;;;;;4894059;29;20398;-65
2022/06/22 15:15:11;;;;;;;4.05;1.88;;;;;;;;;;4897073;29;20061;-65
2022/06/22 15:18:05;;;;;;;3.30;1.73;;;;;;;;;;4906540;29;20071;-66
2022/06/22 15:20:54;;;;;;;5.15;1.70;;;;;;;;;;4900298;29;20087;-66
2022/06/22 15:23:43;;;;;;;4.70;1.88;;;;;;;;;;4900411;29;20055;-66
2022/06/22 15:26:38;;;;;;;4.15;1.70;;;;;;;;;;4947824;28;20059;-65
2022/06/22 15:29:44;;;;;;;4.32;1.95;;;;;;;;;;4953804;29;20695;-65
2022/06/22 15:32:20;;;;;;;5.97;1.80;;;;;;;;;;4989014;28;20041;-65
2022/06/22 15:35:03;;;;;;;4.72;1.77;;;;;;;;;;4998579;28;20052;-65
2022/06/22 15:38:20;;;;;;;3.75;1.80;;;;;;;;;;5031770;28;20053;-65
2022/06/22 15:41:31;;;;;;;4.43;1.88;;;;;;;;;;4991873;28;20073;-65
2022/06/22 15:44:25;;;;;;;4.55;1.80;;;;;;;;;;4975515;28;20057;-65
2022/06/22 15:47:16;;;;;;;8.20;2.05;;;;;;;;;;4957134;28;20042;-65
2022/06/22 15:50:24;;;;;;;5.05;1.90;;;;;;;;;;5030947;28;20489;-66
2022/06/22 15:53:13;;;;;;;4.30;1.83;;;;;;;;;;5031388;28;20042;-65
2022/06/22 15:55:43;;;;;;;3.97;1.92;;;;;;;;;;5031299;28;20162;-66
2022/06/22 15:58:31;;;;;;;4.18;1.73;;;;;;;;;;5031433;28;20060;-66
2022/06/22 16:01:32;;;;;;;6.57;1.95;;;;;;;;;;5031094;28;20061;-66
2022/06/22 16:04:30;;;;;;;5.38;2.30;;;;;;;;;;5031418;28;20052;-65
2022/06/22 16:07:17;;;;;;;3.30;1.80;;;;;;;;;;5043087;28;20056;-65
2022/06/22 16:10:02;;;;;;;4.65;1.95;;;;;;;;;;5051034;28;20140;-65
2022/06/22 16:15:41;;;;;;;3.47;1.75;;;;;;;;;;5073278;28;20044;-66
2022/06/22 16:18:39;;;;;;;3.25;1.70;;;;;;;;;;5038364;28;20057;-65
2022/06/22 16:21:29;;;;;;;;;;;;;;;;;;5031180;28;20068;-65
2022/06/22 16:23:59;;;;;;;2.35;1.42;;;;;;;;;;5031003;28;19929;-66
2022/06/22 16:26:50;;;;;;;3.67;1.88;;;;;;;;;;5030773;28;20054;-65
2022/06/22 16:29:36;;;;;;;3.42;1.65;;;;;;;;;;4998690;28;20061;-64
2022/06/22 16:32:13;;;;;;;3.13;1.52;;;;;;;;;;5030957;28;20192;-64
2022/06/22 16:35:25;;;;;;;3.17;1.70;;;;;;;;;;4952290;28;20061;-64
2022/06/22 16:38:16;;;;;;;4.50;1.80;;;;;;;;;;5030654;28;20050;-64
2022/06/22 16:40:49;;;;;;;3.30;1.50;;;;;;;;;;5030704;28;20041;-64
2022/06/22 16:43:45;;;;;;;3.25;1.70;;;;;;;;;;4990910;28;20057;-64
2022/06/22 16:46:21;;;;;;;3.38;1.50;;;;;;;;;;4935676;29;20051;-64
2022/06/22 16:48:57;;;;;;;2.90;1.60;;;;;;;;;;4952309;29;20059;-64
2022/06/22 16:51:33;;;;;;;3.70;1.80;;;;;;;;;;4952316;29;20074;-63
2022/06/22 16:54:21;;;;;;;2.70;1.73;;;;;;;;;;4952468;29;20054;-64
2022/06/22 16:57:21;;;;;;;3.53;1.80;;;;;;;;;;4952132;29;20055;-64
2022/06/22 16:59:58;;;;;;;5.13;1.92;;;;;;;;;;4978069;28;20124;-64
2022/06/22 17:03:04;;;;;;;5.95;1.67;;;;;;;;;;5009744;28;20058;-64
2022/06/22 17:05:47;;;;;;;4.20;2.03;;;;;;;;;;5010086;28;20068;-63